Time;durP1;ratioP1;P1;durP2;ratioP2;P2;SDS_P1;SDS_P2;PMS_P1;PMS_P2;Temp;Humidity;BMP_temperature;BMP_pressure;BME280_temperature;BME280_humidity;BME280_pressure;Samples;Min_cycle;Max_cycle;Signal;HPM_P1;HPM_P2
2021/09/02 00:01:17;;;;;;;16.02;8.75;;;;;;;16.90;78.91;102736.91;5052449;28;20033;-58
2021/09/02 00:03:45;;;;;;;17.50;10.25;;;;;;;16.92;79.16;102726.44;5050501;28;20090;-58
2021/09/02 00:06:15;;;;;;;15.05;9.00;;;;;;;16.94;78.94;102731.72;5067910;28;20029;-54
2021/09/02 00:08:43;;;;;;;17.58;8.48;;;;;;;16.92;79.08;102722.88;5059757;28;20103;-55
2021/09/02 00:11:10;;;;;;;15.68;8.45;;;;;;;16.88;79.26;102733.56;5038877;28;20053;-58
2021/09/02 00:13:38;;;;;;;14.30;8.55;;;;;;;16.83;79.46;102733.53;5052547;28;20039;-56
2021/09/02 00:16:05;;;;;;;14.02;8.55;;;;;;;16.81;79.86;102728.31;5034144;28;20040;-57
2021/09/02 00:18:33;;;;;;;17.38;8.30;;;;;;;16.80;80.04;102734.06;5052353;28;20076;-57
2021/09/02 00:21:01;;;;;;;15.32;8.73;;;;;;;16.80;80.32;102723.06;5052628;28;20041;-58
2021/09/02 00:23:28;;;;;;;15.82;9.25;;;;;;;16.79;80.12;102735.19;5052330;28;20049;-58
2021/09/02 00:26:11;;;;;;;18.00;9.35;;;;;;;16.80;80.04;102723.06;5052480;28;20570;-58
2021/09/02 00:28:39;;;;;;;16.25;9.00;;;;;;;16.80;79.88;102726.63;5034614;28;20048;-57
2021/09/02 00:31:07;;;;;;;21.23;9.35;;;;;;;16.78;80.21;102723.31;5051934;28;20037;-58
2021/09/02 00:33:35;;;;;;;16.60;8.75;;;;;;;16.71;80.38;102717.16;5034272;28;20080;-58
2021/09/02 00:36:03;;;;;;;19.70;9.48;;;;;;;16.62;80.55;102724.28;5052245;28;20037;-55
2021/09/02 00:38:35;;;;;;;16.48;9.38;;;;;;;16.61;81.11;102720.66;5034209;28;20055;-55
2021/09/02 00:41:04;;;;;;;18.27;8.48;;;;;;;16.66;80.39;102721.81;5018065;28;20106;-55
2021/09/02 00:43:40;;;;;;;18.05;9.15;;;;;;;16.68;80.25;102716.88;5022759;28;20068;-58
2021/09/02 00:46:16;;;;;;;16.63;9.25;;;;;;;16.68;80.66;102716.88;5033838;28;20041;-58
2021/09/02 00:48:46;;;;;;;15.25;9.38;;;;;;;16.69;80.50;102710.25;5025361;28;20037;-59
2021/09/02 00:51:21;;;;;;;15.30;8.63;;;;;;;16.69;80.86;102713.03;5034172;28;20135;-58
2021/09/02 00:53:57;;;;;;;19.70;9.68;;;;;;;16.69;80.49;102704.75;5034195;28;20052;-58
2021/09/02 00:56:45;;;;;;;15.13;8.55;;;;;;;16.64;80.74;102712.97;5051377;28;20418;-58
2021/09/02 00:59:16;;;;;;;17.50;9.45;;;;;;;16.59;80.79;102711.84;5034227;28;20132;-59
2021/09/02 01:02:03;;;;;;;17.67;9.60;;;;;;;16.56;81.26;102714.31;5051042;28;20523;-58
2021/09/02 01:04:54;;;;;;;17.90;9.45;;;;;;;16.58;80.97;102712.13;5049270;28;20045;-57
2021/09/02 01:07:42;;;;;;;16.02;9.18;;;;;;;16.57;81.15;102714.03;5049494;28;20397;-58
2021/09/02 01:10:30;;;;;;;18.23;10.32;;;;;;;16.56;81.50;102715.13;5051617;28;20049;-59
2021/09/02 01:13:10;;;;;;;15.95;9.00;;;;;;;16.53;81.77;102714.84;5033643;28;20049;-58
2021/09/02 01:15:41;;;;;;;16.65;10.18;;;;;;;16.51;81.54;102712.34;5010948;28;20049;-58
2021/09/02 01:18:28;;;;;;;22.58;10.43;;;;;;;16.48;82.14;102712.03;5045191;28;20407;-58
2021/09/02 01:21:16;;;;;;;21.52;9.98;;;;;;;16.47;82.22;102715.88;5051081;28;20049;-57
2021/09/02 01:23:53;;;;;;;17.85;10.30;;;;;;;16.51;82.11;102709.59;5042214;28;20049;-57
2021/09/02 01:26:42;;;;;;;19.23;10.95;;;;;;;16.49;81.81;102714.50;5069000;28;20060;-57
2021/09/02 01:29:29;;;;;;;16.48;10.48;;;;;;;16.45;81.96;102713.41;5054264;28;20048;-57
2021/09/02 01:32:17;;;;;;;20.38;10.73;;;;;;;16.34;82.30;102712.47;5068980;28;20078;-55
2021/09/02 01:34:45;;;;;;;16.42;10.13;;;;;;;16.36;82.56;102704.78;5071703;28;20102;-58
2021/09/02 01:37:13;;;;;;;20.00;10.32;;;;;;;16.41;82.66;102701.25;5071415;28;20525;-56
2021/09/02 01:39:40;;;;;;;20.60;11.43;;;;;;;16.45;82.61;102707.03;5071598;28;20036;-57
2021/09/02 01:42:12;;;;;;;18.00;10.35;;;;;;;16.48;82.33;102712.03;5071415;28;20055;-57
2021/09/02 01:44:40;;;;;;;16.48;10.20;;;;;;;16.51;81.78;102706.81;5053213;28;20056;-58
2021/09/02 01:47:27;;;;;;;18.00;10.40;;;;;;;16.56;81.56;102714.31;5071346;28;20040;-58
2021/09/02 01:50:02;;;;;;;21.25;10.93;;;;;;;16.46;82.29;102706.78;5071437;28;20086;-57
2021/09/02 01:52:30;;;;;;;18.35;10.07;;;;;;;16.43;82.16;102710.06;5071356;28;20102;-58
2021/09/02 01:54:57;;;;;;;17.85;11.05;;;;;;;16.45;82.32;102707.88;5071776;28;20046;-57
2021/09/02 01:57:25;;;;;;;18.20;10.90;;;;;;;16.46;82.17;102706.78;5070961;28;20039;-57
2021/09/02 01:59:53;;;;;;;20.00;10.80;;;;;;;16.49;82.08;102702.69;5071934;28;20106;-57
2021/09/02 02:02:21;;;;;;;16.23;10.25;;;;;;;16.54;81.83;102705.47;5075166;28;20102;-57
2021/09/02 02:04:49;;;;;;;18.92;11.40;;;;;;;16.56;81.89;102703.28;5074874;28;20487;-57
2021/09/02 02:07:17;;;;;;;19.05;10.98;;;;;;;16.56;81.78;102695.84;5057030;28;20049;-57
2021/09/02 02:09:45;;;;;;;15.98;10.77;;;;;;;16.57;81.69;102696.69;5056998;28;20086;-58
2021/09/02 02:12:14;;;;;;;17.92;10.57;;;;;;;16.56;81.15;102693.09;5056304;28;20054;-57
2021/09/02 02:15:02;;;;;;;18.08;10.95;;;;;;;16.53;81.17;102687.31;5062767;28;20044;-58
2021/09/02 02:17:31;;;;;;;20.88;11.48;;;;;;;16.51;81.44;102695.00;5074960;28;20036;-57
2021/09/02 02:20:06;;;;;;;19.13;9.93;;;;;;;16.54;81.86;102688.97;5056529;28;20119;-57
2021/09/02 02:22:36;;;;;;;16.73;10.40;;;;;;;16.60;81.43;102688.75;5056644;28;20403;-58
2021/09/02 02:25:13;;;;;;;;;;;;;;;16.64;81.08;102689.03;5057058;28;20049;-56
2021/09/02 02:27:42;;;;;;;17.58;10.45;;;;;;;16.60;81.17;102694.25;5056538;28;19920;-58
2021/09/02 02:30:26;;;;;;;16.75;10.27;;;;;;;16.60;81.19;102699.75;5056786;28;20071;-57
2021/09/02 02:33:14;;;;;;;15.48;10.45;;;;;;;16.58;80.78;102688.19;5071690;28;20056;-58
2021/09/02 02:35:53;;;;;;;16.90;9.88;;;;;;;16.55;80.43;102690.63;5074800;28;20506;-57
2021/09/02 02:38:27;;;;;;;17.27;10.50;;;;;;;16.56;80.42;102686.78;5056372;28;20143;-58
2021/09/02 02:40:54;;;;;;;20.13;10.35;;;;;;;16.56;80.37;102692.28;5074446;28;20037;-57
2021/09/02 02:43:22;;;;;;;17.88;9.60;;;;;;;16.56;80.41;102689.53;5056100;28;20040;-57
2021/09/02 02:45:50;;;;;;;16.75;10.27;;;;;;;16.56;80.09;102689.53;5074089;28;20043;-58
2021/09/02 02:48:17;;;;;;;17.95;10.30;;;;;;;16.56;80.36;102693.09;5074453;28;20044;-58
2021/09/02 02:50:45;;;;;;;16.50;9.38;;;;;;;16.57;80.10;102694.78;5073968;28;20848;-57
2021/09/02 02:53:13;;;;;;;17.40;10.35;;;;;;;16.56;79.86;102687.59;5074292;28;20044;-58
2021/09/02 02:55:40;;;;;;;15.73;9.93;;;;;;;16.58;79.79;102690.09;5073298;28;20041;-57
2021/09/02 02:58:08;;;;;;;18.45;11.30;;;;;;;16.60;79.54;102687.94;5063880;28;20499;-57
2021/09/02 03:00:36;;;;;;;15.85;9.93;;;;;;;16.60;79.99;102688.75;5055875;28;20048;-59
2021/09/02 03:03:03;;;;;;;16.10;10.43;;;;;;;16.60;79.57;102685.16;5061500;28;20040;-58
2021/09/02 03:05:31;;;;;;;15.85;10.07;;;;;;;16.60;79.75;102682.41;5073891;28;20498;-58
2021/09/02 03:07:59;;;;;;;17.52;10.18;;;;;;;16.57;79.27;102683.78;5039371;28;20040;-58
2021/09/02 03:10:27;;;;;;;22.25;10.93;;;;;;;16.52;79.52;102686.47;5055579;28;20435;-58
2021/09/02 03:12:55;;;;;;;16.42;9.90;;;;;;;16.51;79.76;102682.06;5054878;28;20379;-54
2021/09/02 03:15:23;;;;;;;16.38;10.68;;;;;;;16.52;79.90;102680.97;5064178;28;20562;-55
2021/09/02 03:17:50;;;;;;;16.52;10.07;;;;;;;16.54;79.63;102692.53;5073673;28;20455;-58
2021/09/02 03:20:19;;;;;;;16.08;10.15;;;;;;;16.52;80.23;102686.47;5039201;28;20410;-58
2021/09/02 03:22:52;;;;;;;15.85;10.32;;;;;;;16.52;80.03;102680.97;5055384;28;20491;-56
2021/09/02 03:25:29;;;;;;;15.30;10.15;;;;;;;16.52;80.36;102683.72;5055378;28;20048;-55
2021/09/02 03:28:04;;;;;;;20.30;10.93;;;;;;;16.53;79.64;102685.38;5055480;28;20084;-55
2021/09/02 03:30:36;;;;;;;15.00;10.20;;;;;;;16.55;78.96;102680.44;5055386;28;20033;-57
2021/09/02 03:33:12;;;;;;;17.38;10.15;;;;;;;16.54;78.70;102684.28;5055366;28;20074;-58
2021/09/02 03:35:52;;;;;;;17.65;10.23;;;;;;;16.53;77.72;102681.81;5040432;28;20040;-57
2021/09/02 03:38:20;;;;;;;18.80;10.43;;;;;;;16.52;77.88;102675.44;5055027;28;20044;-58
2021/09/02 03:41:08;;;;;;;19.42;10.15;;;;;;;16.52;77.43;102675.44;5063359;28;20044;-57
2021/09/02 03:43:55;;;;;;;15.95;10.25;;;;;;;16.53;77.36;102671.63;5052995;28;20060;-57
2021/09/02 03:46:43;;;;;;;15.25;9.50;;;;;;;16.55;76.97;102668.63;5067661;28;20053;-57
2021/09/02 03:49:30;;;;;;;20.73;9.95;;;;;;;16.56;76.83;102673.84;5064208;28;20052;-57
2021/09/02 03:51:58;;;;;;;17.23;10.55;;;;;;;16.56;75.90;102671.09;5060695;28;20090;-55
2021/09/02 03:54:25;;;;;;;19.98;10.32;;;;;;;16.55;76.01;102669.44;5060844;28;20506;-58
2021/09/02 03:56:53;;;;;;;15.50;9.57;;;;;;;16.55;76.18;102668.63;5072835;28;20044;-57
2021/09/02 03:59:20;;;;;;;18.10;9.70;;;;;;;16.50;76.00;102671.31;5072573;28;20044;-59
2021/09/02 04:01:48;;;;;;;16.80;10.25;;;;;;;16.45;76.62;102669.38;5072883;28;20124;-58
2021/09/02 04:04:16;;;;;;;18.58;11.00;;;;;;;16.45;76.67;102668.50;5064836;28;20033;-58
2021/09/02 04:06:44;;;;;;;17.95;11.00;;;;;;;16.40;76.98;102669.31;5023915;28;20045;-55
2021/09/02 04:09:11;;;;;;;18.13;11.40;;;;;;;16.36;77.42;102670.94;5068400;28;20048;-58
2021/09/02 04:11:39;;;;;;;19.00;11.65;;;;;;;16.37;78.01;102669.84;5057562;28;20044;-57
2021/09/02 04:14:07;;;;;;;23.02;13.40;;;;;;;16.35;77.58;102674.75;5046101;28;20048;-56
2021/09/02 04:16:35;;;;;;;20.45;12.00;;;;;;;16.34;77.65;102673.13;5058708;28;20090;-58
2021/09/02 04:19:03;;;;;;;16.73;10.73;;;;;;;16.31;77.77;102673.66;5072508;28;20093;-59
2021/09/02 04:21:31;;;;;;;18.13;10.57;;;;;;;16.26;77.76;102668.94;5072128;28;20094;-58
2021/09/02 04:23:58;;;;;;;25.98;17.92;;;;;;;16.27;78.56;102661.50;5062743;28;20511;-59
2021/09/02 04:26:27;;;;;;;29.05;19.65;;;;;;;16.31;78.15;102657.16;5072518;28;20045;-59
2021/09/02 04:28:54;;;;;;;21.02;11.85;;;;;;;16.33;77.97;102660.44;5049406;28;20083;-59
2021/09/02 04:31:22;;;;;;;23.73;12.55;;;;;;;16.30;78.16;102659.03;5066012;28;20068;-56
2021/09/02 04:33:54;;;;;;;16.83;10.93;;;;;;;16.28;78.17;102663.16;5054394;28;20068;-59
2021/09/02 04:36:42;;;;;;;17.33;10.93;;;;;;;16.27;78.42;102661.50;5066452;28;20045;-58
2021/09/02 04:39:25;;;;;;;18.45;10.02;;;;;;;16.27;78.97;102665.06;5030369;28;20067;-58
2021/09/02 04:41:56;;;;;;;18.92;12.00;;;;;;;16.30;78.67;102667.28;5052319;28;20055;-59
2021/09/02 04:44:44;;;;;;;20.23;12.35;;;;;;;16.32;79.02;102678.03;5069473;28;20534;-57
2021/09/02 04:47:12;;;;;;;17.33;10.30;;;;;;;16.28;78.83;102674.16;5049134;28;20091;-58
2021/09/02 04:50:00;;;;;;;19.45;10.60;;;;;;;16.22;79.28;102675.22;5057220;28;20048;-58
2021/09/02 04:52:28;;;;;;;19.02;11.07;;;;;;;16.13;79.28;102667.41;5071388;28;20487;-57
2021/09/02 04:55:15;;;;;;;15.02;9.98;;;;;;;16.16;79.64;102669.66;5071192;28;20138;-58
2021/09/02 04:57:43;;;;;;;17.92;9.95;;;;;;;16.19;79.14;102676.56;5068437;28;20033;-56
2021/09/02 05:00:31;;;;;;;14.98;9.32;;;;;;;16.21;79.34;102668.03;5065929;28;20053;-57
2021/09/02 05:02:59;;;;;;;20.20;10.65;;;;;;;16.22;79.40;102673.28;5052331;28;20094;-56
2021/09/02 05:05:27;;;;;;;18.50;10.40;;;;;;;16.19;79.24;102671.88;5052172;28;20106;-58
2021/09/02 05:07:55;;;;;;;16.80;10.13;;;;;;;16.16;79.55;102671.56;5068558;28;20043;-57
2021/09/02 05:10:22;;;;;;;22.58;10.27;;;;;;;16.12;79.33;102668.50;5072204;28;20423;-58
2021/09/02 05:12:50;;;;;;;18.58;9.63;;;;;;;16.13;79.91;102672.91;5071649;28;20047;-58
2021/09/02 05:15:18;;;;;;;20.13;10.23;;;;;;;16.12;79.40;102667.69;5071640;28;20498;-58
2021/09/02 05:17:47;;;;;;;17.95;11.13;;;;;;;16.10;79.62;102667.13;5067446;28;20392;-55
2021/09/02 05:20:15;;;;;;;20.65;10.68;;;;;;;16.11;79.57;102668.75;5063201;28;20051;-57
2021/09/02 05:22:43;;;;;;;18.65;10.13;;;;;;;16.14;79.74;102665.50;5071655;28;20044;-58
2021/09/02 05:25:12;;;;;;;18.83;10.35;;;;;;;16.12;79.57;102662.19;5053688;28;20048;-57
2021/09/02 05:27:40;;;;;;;17.85;9.65;;;;;;;16.08;80.00;102661.88;5059696;28;20460;-58
2021/09/02 05:30:10;;;;;;;18.85;9.95;;;;;;;16.08;80.42;102663.78;5069354;28;20033;-60
2021/09/02 05:32:38;;;;;;;18.77;10.50;;;;;;;16.07;79.86;102668.47;5053891;28;20425;-58
2021/09/02 05:35:07;;;;;;;17.98;10.00;;;;;;;16.05;79.91;102667.91;5072238;28;20062;-57
2021/09/02 05:37:35;;;;;;;21.70;11.02;;;;;;;16.01;80.33;102666.75;5062744;28;20068;-54
2021/09/02 05:40:05;;;;;;;18.48;9.82;;;;;;;16.00;80.39;102667.84;5063056;28;20059;-57
2021/09/02 05:42:33;;;;;;;18.05;9.77;;;;;;;15.96;80.99;102672.19;5066285;28;20059;-58
2021/09/02 05:45:01;;;;;;;17.60;10.55;;;;;;;16.02;80.75;102668.44;5063196;28;20037;-55
2021/09/02 05:47:30;;;;;;;21.83;10.90;;;;;;;16.07;80.50;102673.97;5067722;28;20120;-57
2021/09/02 05:50:09;;;;;;;22.98;11.75;;;;;;;16.07;80.25;102673.16;5025176;28;20041;-57
2021/09/02 05:52:49;;;;;;;15.13;9.25;;;;;;;16.08;80.70;102674.78;5057042;28;20419;-57
2021/09/02 05:55:31;;;;;;;18.20;9.85;;;;;;;16.10;80.74;102673.44;5054357;28;20055;-57
2021/09/02 05:58:02;;;;;;;23.50;10.40;;;;;;;16.17;80.26;102673.25;5056845;28;20036;-57
2021/09/02 06:00:48;;;;;;;20.17;10.70;;;;;;;16.19;80.17;102677.38;5056977;28;20123;-57
2021/09/02 06:03:36;;;;;;;19.52;10.57;;;;;;;16.23;79.49;102676.84;5061376;28;20068;-57
2021/09/02 06:06:23;;;;;;;20.55;10.73;;;;;;;16.17;79.79;102679.56;5072350;28;20107;-57
2021/09/02 06:08:57;;;;;;;21.10;10.07;;;;;;;16.14;79.56;102674.59;5056921;28;20505;-56
2021/09/02 06:11:25;;;;;;;19.17;9.85;;;;;;;16.09;79.96;102677.28;5056876;28;20074;-55
2021/09/02 06:14:13;;;;;;;18.73;9.15;;;;;;;16.14;79.67;102680.09;5055594;28;20492;-54
2021/09/02 06:16:40;;;;;;;19.60;10.27;;;;;;;16.19;79.66;102684.81;5058950;28;20037;-55
2021/09/02 06:19:08;;;;;;;19.60;10.77;;;;;;;16.21;79.83;102679.03;5074018;28;20041;-55
2021/09/02 06:21:36;;;;;;;20.52;10.48;;;;;;;16.19;80.08;102688.38;5074588;28;20033;-56
2021/09/02 06:24:03;;;;;;;19.52;10.48;;;;;;;16.22;80.28;102683.47;5065214;28;20052;-56
2021/09/02 06:26:31;;;;;;;18.15;11.20;;;;;;;16.27;80.58;102678.00;5071721;28;20551;-57
2021/09/02 06:28:59;;;;;;;23.00;10.68;;;;;;;16.29;80.11;102682.16;5063570;28;20059;-57
2021/09/02 06:31:26;;;;;;;20.85;10.15;;;;;;;16.29;80.11;102681.31;5074552;28;20045;-57
2021/09/02 06:33:54;;;;;;;18.85;9.13;;;;;;;16.32;79.87;102683.53;5073313;28;20036;-56
2021/09/02 06:36:22;;;;;;;19.40;9.95;;;;;;;16.36;79.71;102680.00;5069384;28;20123;-57
2021/09/02 06:38:49;;;;;;;22.35;11.77;;;;;;;16.39;79.43;102673.16;5074736;28;20060;-58
2021/09/02 06:41:17;;;;;;;23.85;13.40;;;;;;;16.41;79.35;102673.72;5074923;28;20048;-58
2021/09/02 06:43:46;;;;;;;25.17;11.45;;;;;;;16.35;79.79;102686.59;5056839;28;20092;-57
2021/09/02 06:46:14;;;;;;;23.40;11.45;;;;;;;16.37;79.64;102678.91;5067771;28;20127;-58
2021/09/02 06:48:42;;;;;;;18.48;9.82;;;;;;;16.43;79.33;102678.94;5055817;28;20051;-58
2021/09/02 06:51:10;;;;;;;18.33;8.40;;;;;;;16.35;79.16;102683.84;5074434;28;20124;-58
2021/09/02 06:53:37;;;;;;;21.55;8.38;;;;;;;16.38;79.01;102679.75;5056134;28;20384;-59
2021/09/02 06:56:08;;;;;;;21.35;9.73;;;;;;;16.47;79.43;102693.84;5047876;28;20033;-55
2021/09/02 06:58:36;;;;;;;21.80;12.23;;;;;;;16.50;78.63;102693.31;5056091;28;20036;-56
2021/09/02 07:01:10;;;;;;;13.75;7.00;;;;;;;16.55;78.74;102690.63;5055614;28;20047;-52
2021/09/02 07:03:50;;;;;;;23.95;15.02;;;;;;;16.50;78.41;102688.66;5055673;28;20068;-54
2021/09/02 07:06:38;;;;;;;23.60;12.10;;;;;;;16.42;78.92;102697.38;5065316;28;20033;-56
2021/09/02 07:09:12;;;;;;;19.02;8.32;;;;;;;16.35;78.66;102692.09;4343711;28;10000219;-56
2021/09/02 07:11:45;;;;;;;15.50;8.30;;;;;;;16.34;78.46;102695.13;5040902;28;20562;-55
2021/09/02 07:14:33;;;;;;;19.10;8.20;;;;;;;16.33;78.43;102694.31;5053876;28;20049;-57
2021/09/02 07:17:01;;;;;;;22.02;8.95;;;;;;;16.34;78.59;102697.88;5066115;28;20068;-56
2021/09/02 07:19:48;;;;;;;16.80;8.30;;;;;;;16.35;78.55;102691.28;5068331;28;20040;-56
2021/09/02 07:22:36;;;;;;;14.13;7.35;;;;;;;16.41;79.01;102690.25;5071341;28;20052;-56
2021/09/02 07:25:24;;;;;;;15.95;8.13;;;;;;;16.47;78.60;102682.84;5071731;28;20110;-57
2021/09/02 07:27:52;;;;;;;14.63;7.90;;;;;;;16.52;78.33;102689.22;5067918;28;20052;-56
2021/09/02 07:30:19;;;;;;;18.90;8.02;;;;;;;16.57;78.82;102697.53;5071068;28;20127;-55
2021/09/02 07:33:19;;;;;;;13.05;6.40;;;;;;;16.59;78.25;102691.75;4988576;28;20055;-58
2021/09/02 07:35:47;;;;;;;17.98;7.47;;;;;;;16.65;78.43;102695.41;4989551;28;20054;-57
2021/09/02 07:38:15;;;;;;;15.38;7.68;;;;;;;16.64;76.96;102693.72;4986816;28;20058;-57
2021/09/02 07:40:42;;;;;;;16.15;7.18;;;;;;;16.67;77.42;102698.69;4989553;28;20047;-54
2021/09/02 07:43:26;;;;;;;18.92;8.20;;;;;;;16.69;77.25;102702.88;4988730;28;20080;-58
2021/09/02 07:45:53;;;;;;;17.25;7.40;;;;;;;16.71;76.74;102706.16;4988633;28;20034;-57
2021/09/02 07:48:21;;;;;;;15.65;7.13;;;;;;;16.70;76.60;102714.69;4977593;28;20085;-57
2021/09/02 07:50:48;;;;;;;13.88;7.75;;;;;;;16.73;76.25;102709.47;5000087;28;20079;-55
2021/09/02 07:53:16;;;;;;;20.65;9.52;;;;;;;16.79;76.32;102705.72;5066769;28;20491;-56
2021/09/02 07:55:44;;;;;;;17.48;8.32;;;;;;;16.78;75.32;102706.78;5072970;28;20087;-57
2021/09/02 07:58:12;;;;;;;17.85;7.50;;;;;;;16.78;75.22;102705.94;5067072;28;20451;-56
2021/09/02 08:00:40;;;;;;;17.88;7.32;;;;;;;16.80;74.77;102695.53;5054291;28;20056;-56
2021/09/02 08:03:08;;;;;;;13.77;6.20;;;;;;;16.84;75.53;102704.94;5019060;28;20044;-50
2021/09/02 08:05:39;;;;;;;14.95;6.55;;;;;;;16.91;74.95;102710.19;5031472;28;20060;-52
2021/09/02 08:08:08;;;;;;;13.48;6.80;;;;;;;16.94;74.69;102710.50;5036648;28;20533;-57
2021/09/02 08:10:37;;;;;;;17.67;7.15;;;;;;;16.94;74.57;102707.75;5036065;28;20037;-55
2021/09/02 08:13:17;;;;;;;13.45;6.95;;;;;;;16.95;73.99;102703.06;5036714;28;20423;-53
2021/09/02 08:16:02;;;;;;;19.67;7.90;;;;;;;16.97;73.55;102700.88;5034832;28;20499;-56
2021/09/02 08:18:31;;;;;;;15.85;7.03;;;;;;;17.00;73.26;102697.59;5034977;28;20037;-53
2021/09/02 08:21:12;;;;;;;15.43;6.78;;;;;;;17.03;72.70;102705.34;5033404;28;20411;-55
2021/09/02 08:24:00;;;;;;;15.05;7.25;;;;;;;17.06;72.56;102696.53;5048706;28;20057;-55
2021/09/02 08:26:28;;;;;;;17.27;7.15;;;;;;;17.08;72.57;102712.78;5038513;28;20132;-53
2021/09/02 08:29:16;;;;;;;17.58;8.00;;;;;;;17.08;71.25;102701.75;5050462;28;20059;-56
2021/09/02 08:31:45;;;;;;;14.25;6.93;;;;;;;17.02;71.56;102704.47;5026916;28;20510;-57
2021/09/02 08:34:32;;;;;;;16.65;7.28;;;;;;;17.03;71.18;102697.06;5050512;28;20056;-56
2021/09/02 08:37:21;;;;;;;14.85;7.30;;;;;;;17.10;71.95;102696.81;5049278;28;20049;-55
2021/09/02 08:39:50;;;;;;;19.48;7.45;;;;;;;17.22;71.85;102694.69;5051644;28;20056;-53
2021/09/02 08:42:18;;;;;;;19.52;7.90;;;;;;;17.32;72.82;102697.50;5057346;28;20036;-57
2021/09/02 08:44:45;;;;;;;15.07;7.50;;;;;;;17.38;71.30;102699.19;5057196;28;20041;-56
2021/09/02 08:47:13;;;;;;;19.90;7.43;;;;;;;17.39;70.34;102695.34;5064823;28;20792;-60
2021/09/02 08:49:41;;;;;;;18.80;7.35;;;;;;;17.38;70.73;102699.19;5055865;28;20041;-56
2021/09/02 08:52:08;;;;;;;17.23;7.93;;;;;;;17.34;70.58;102698.06;5051358;28;20045;-57
2021/09/02 08:54:36;;;;;;;15.60;7.75;;;;;;;17.33;70.48;102695.56;5035661;28;20041;-57
2021/09/02 08:57:04;;;;;;;20.48;7.63;;;;;;;17.35;69.88;102694.22;5050587;28;20055;-58
2021/09/02 08:59:32;;;;;;;20.48;8.88;;;;;;;17.39;69.47;102695.34;5052764;28;20554;-58
2021/09/02 09:02:00;;;;;;;18.23;8.68;;;;;;;17.43;69.31;102706.66;5051367;28;20048;-58
2021/09/02 09:04:34;;;;;;;22.05;8.93;;;;;;;17.45;68.28;102696.19;5018762;28;20083;-57
2021/09/02 09:07:02;;;;;;;14.77;7.75;;;;;;;17.45;68.42;102702.53;5051315;28;20045;-57
2021/09/02 09:09:30;;;;;;;20.50;7.60;;;;;;;17.47;68.11;102707.78;5034697;28;20136;-58
2021/09/02 09:12:00;;;;;;;17.00;7.65;;;;;;;17.53;68.04;102711.38;5037226;28;20048;-56
2021/09/02 09:14:30;;;;;;;17.65;7.20;;;;;;;17.59;66.35;102707.56;5055987;28;20612;-58
2021/09/02 09:17:00;;;;;;;17.52;7.88;;;;;;;17.67;67.16;102704.25;5031766;28;20087;-58
2021/09/02 09:19:52;;;;;;;20.77;8.73;;;;;;;17.71;66.66;102708.16;5021518;28;20571;-59
2021/09/02 09:22:29;;;;;;;18.55;7.82;;;;;;;17.71;66.74;102713.66;5035673;28;20048;-59
2021/09/02 09:25:06;;;;;;;17.92;8.48;;;;;;;17.77;66.48;102709.81;5036227;28;20453;-58
2021/09/02 09:27:54;;;;;;;22.17;9.18;;;;;;;17.84;66.64;102704.91;5029806;28;20094;-58
2021/09/02 09:30:41;;;;;;;18.60;8.18;;;;;;;17.93;66.40;102698.88;5034972;28;20064;-58
2021/09/02 09:33:11;;;;;;;21.88;8.65;;;;;;;17.95;67.13;102702.19;5054838;28;20037;-56
2021/09/02 09:35:58;;;;;;;26.45;9.50;;;;;;;17.95;68.07;102696.69;5039444;28;20045;-59
2021/09/02 09:38:57;;;;;;;28.25;9.27;;;;;;;18.00;71.58;102699.44;5056318;28;20495;-57
2021/09/02 09:41:46;;;;;;;17.92;8.32;;;;;;;17.91;67.01;102690.03;5049487;28;20068;-56
2021/09/02 09:44:24;;;;;;;16.88;8.35;;;;;;;17.88;67.72;102686.72;5037244;28;20086;-60
2021/09/02 09:47:17;;;;;;;16.42;8.80;;;;;;;17.86;66.42;102696.38;5035281;28;20055;-59
2021/09/02 09:49:58;;;;;;;17.10;7.90;;;;;;;17.83;66.90;102700.50;5036922;28;20053;-56
2021/09/02 09:52:46;;;;;;;;;;;;;;;17.84;67.37;102696.63;5055375;28;20411;-57
2021/09/02 09:55:34;;;;;;;22.38;9.60;;;;;;;17.82;67.03;102693.34;5061550;28;19928;-59
2021/09/02 09:58:02;;;;;;;19.92;8.43;;;;;;;17.86;67.28;102699.94;5044039;28;20373;-58
2021/09/02 10:00:29;;;;;;;16.23;7.30;;;;;;;17.91;67.14;102695.56;5058275;28;20586;-58
2021/09/02 10:02:57;;;;;;;18.63;9.88;;;;;;;17.96;67.03;102698.31;5048264;28;20042;-58
2021/09/02 10:05:25;;;;;;;20.27;8.93;;;;;;;17.91;66.14;102690.03;5033911;28;20041;-55
2021/09/02 10:07:54;;;;;;;15.45;7.47;;;;;;;17.88;66.36;102694.16;5049111;28;20045;-58
2021/09/02 10:10:22;;;;;;;17.75;8.00;;;;;;;17.84;65.67;102688.34;5070098;28;20127;-57
2021/09/02 10:12:51;;;;;;;16.75;7.85;;;;;;;17.81;65.91;102680.63;5065501;28;20045;-58
2021/09/02 10:15:20;;;;;;;16.10;8.13;;;;;;;17.81;65.86;102680.63;5070265;28;20046;-58
2021/09/02 10:17:48;;;;;;;19.27;8.00;;;;;;;17.81;65.31;102680.63;5047152;28;20047;-58
2021/09/02 10:20:19;;;;;;;15.10;7.03;;;;;;;17.83;65.38;102681.19;5052017;28;20526;-57
2021/09/02 10:22:49;;;;;;;16.08;7.53;;;;;;;17.85;65.21;102678.19;5065661;28;20079;-57
2021/09/02 10:25:46;;;;;;;21.80;8.52;;;;;;;17.93;67.44;102674.88;5033109;28;20049;-57
2021/09/02 10:28:22;;;;;;;16.95;7.97;;;;;;;17.99;66.00;102670.19;4940740;28;20058;-56
2021/09/02 10:30:56;;;;;;;17.83;8.30;;;;;;;18.00;65.37;102677.38;4968252;28;20050;-56
2021/09/02 10:33:32;;;;;;;20.83;7.43;;;;;;;18.03;66.29;102666.59;4949674;28;20084;-55
2021/09/02 10:36:21;;;;;;;17.27;8.05;;;;;;;18.08;66.03;102672.13;4967970;28;20073;-58
2021/09/02 10:38:56;;;;;;;16.30;8.05;;;;;;;18.15;66.54;102666.34;4967867;28;20213;-59
2021/09/02 10:41:47;;;;;;;15.82;8.23;;;;;;;18.24;64.79;102667.47;4963755;28;20047;-54
2021/09/02 10:44:17;;;;;;;17.65;9.00;;;;;;;18.28;64.95;102660.31;4968927;28;20599;-58
2021/09/02 10:47:17;;;;;;;17.23;9.30;;;;;;;18.24;64.28;102670.22;4949285;28;20485;-58
2021/09/02 10:50:21;;;;;;;18.40;10.32;;;;;;;18.21;64.66;102668.03;4954936;28;20071;-56
2021/09/02 10:52:50;;;;;;;18.77;8.23;;;;;;;18.22;64.50;102658.63;4956725;28;20046;-56
2021/09/02 10:55:40;;;;;;;18.65;8.43;;;;;;;18.26;65.06;102654.22;4942959;29;20051;-56
2021/09/02 10:58:39;;;;;;;17.65;9.35;;;;;;;18.30;65.95;102655.34;4956923;28;20049;-57
2021/09/02 11:01:22;;;;;;;18.48;8.75;;;;;;;18.27;64.15;102650.34;4954097;28;20575;-53
2021/09/02 11:04:12;;;;;;;17.83;8.32;;;;;;;18.28;64.66;102656.72;4949153;28;20492;-57
2021/09/02 11:07:00;;;;;;;23.83;9.98;;;;;;;18.30;64.29;102655.34;5045525;28;20044;-54
2021/09/02 11:09:35;;;;;;;18.73;9.35;;;;;;;18.39;65.53;102652.03;5061857;28;20037;-52
2021/09/02 11:12:09;;;;;;;18.70;8.93;;;;;;;18.42;64.54;102656.97;5065575;28;20171;-54
2021/09/02 11:14:46;;;;;;;16.88;7.53;;;;;;;18.41;64.87;102639.59;5063505;28;20044;-57
2021/09/02 11:17:15;;;;;;;19.98;8.95;;;;;;;18.44;63.72;102649.25;5066690;28;20036;-56
2021/09/02 11:19:43;;;;;;;19.02;8.70;;;;;;;18.45;64.50;102642.66;5063825;28;20529;-54
2021/09/02 11:22:16;;;;;;;14.80;8.20;;;;;;;18.47;64.35;102637.66;5067584;28;20055;-56
2021/09/02 11:24:45;;;;;;;17.02;7.88;;;;;;;18.49;64.02;102646.50;5050726;28;20490;-57
2021/09/02 11:27:34;;;;;;;15.18;7.50;;;;;;;18.54;63.98;102640.97;5039711;28;20045;-57
2021/09/02 11:30:25;;;;;;;16.58;7.90;;;;;;;18.53;63.86;102637.38;5029657;28;20034;-55
2021/09/02 11:32:58;;;;;;;15.43;7.32;;;;;;;18.59;64.07;102638.22;5030111;28;20293;-57
2021/09/02 11:35:26;;;;;;;17.65;8.07;;;;;;;18.61;63.53;102632.41;5021731;28;20045;-56
2021/09/02 11:37:54;;;;;;;11.70;5.75;;;;;;;18.64;64.35;102627.16;5025932;28;20053;-57
2021/09/02 11:40:27;;;;;;;14.25;6.60;;;;;;;18.74;65.12;102627.13;5027369;28;20487;-53
2021/09/02 11:42:56;;;;;;;13.52;6.85;;;;;;;18.80;65.24;102627.16;5015799;28;20041;-53
2021/09/02 11:45:28;;;;;;;16.80;7.35;;;;;;;18.84;63.52;102625.50;5006299;28;20495;-53